Queen Of Surrey — VG8177 — position and weather

sailwx.info

Track history (hours):
 
Tides and Currents Weather Stations Pressure Air Temp Water Temp Dewpoint Dewpoint Depression Visibility Wind Speed Wind Dir Waves Ship Positions

Queen Of Surrey

Last reported at 2017-Nov-19 23:25 UTC. Time now 2017-Nov-20 00:26 UTC.
Position N 49°23' W 123°16'.

Length 140 m; draft 6 m.

Type: Passenger vessel. MMSI: 316001262.

Date/timePositionNaut miles runAvg speedWind from/ knotsBaromVisibWave heightAir tempDewpointWater temp
2017-Nov-19 23:25N 49°23' W 123°16'716.1
2017-Nov-19 23:00N 49°25' W 123°26'2 2.7
2017-Nov-19 22:21N 49°26' W 123°28'514.7
2017-Nov-19 22:00N 49°26' W 123°20'4 4.6
2017-Nov-19 21:11N 49°23' W 123°16'415.1
2017-Nov-19 20:53N 49°25' W 123°22'4 5.6
2017-Nov-19 20:08N 49°26' W 123°28'1 8.2
2017-Nov-19 20:00N 49°25' W 123°27'8 9.2
2017-Nov-19 19:11N 49°23' W 123°16'0 1.8
2017-Nov-19 19:00N 49°23' W 123°16'815.9
2017-Nov-19 18:30N 49°26' W 123°28'0 0.7
2017-Nov-19 18:00N 49°26' W 123°28'816.4
2017-Nov-19 17:29N 49°23' W 123°16'0 0.3
2017-Nov-19 17:00N 49°23' W 123°16'815.4
2017-Nov-19 16:30N 49°26' W 123°27'1 1.5
2017-Nov-19 15:58N 49°26' W 123°28'715.4
2017-Nov-19 15:30N 49°25' W 123°17'2 4.6
2017-Nov-19 14:59N 49°23' W 123°16'713.7
2017-Nov-19 14:29N 49°25' W 123°26'2 0.4
2017-Nov-19 09:56N 49°26' W 123°28'0 0.0
2017-Nov-19 06:27N 49°26' W 123°28'613.2
2017-Nov-19 05:59N 49°26' W 123°19'4 6.9
2017-Nov-19 05:28N 49°23' W 123°16'511.8
2017-Nov-19 05:00N 49°25' W 123°23'3 6.6
2017-Nov-19 04:30N 49°26' W 123°28'713.8
2017-Nov-19 03:58N 49°25' W 123°17'2 2.8
2017-Nov-19 03:22N 49°23' W 123°16'616.2
2017-Nov-19 03:00N 49°25' W 123°24'3 5.2
2017-Nov-19 02:29N 49°26' W 123°28'814.5
2017-Nov-19 01:56N 49°24' W 123°17'1 1.3
2017-Nov-19 01:23N 49°23' W 123°16'616.1
2017-Nov-19 01:00N 49°25' W 123°25'2 4.1
2017-Nov-19 00:29N 49°26' W 123°28'814.1
2017-Nov-18 23:55N 49°24' W 123°17'1 2.0
2017-Nov-18 23:20N 49°23' W 123°16'513.7
2017-Nov-18 22:59N 49°25' W 123°23'4 8.0
2017-Nov-18 22:30N 49°26' W 123°28'4 6.8
2017-Nov-18 21:57N 49°25' W 123°23'5 6.9
2017-Nov-18 21:13N 49°23' W 123°16'312.4
2017-Nov-18 21:00N 49°25' W 123°18'713.6
2017-Nov-18 20:29N 49°26' W 123°28'1 1.4
2017-Nov-18 20:00N 49°26' W 123°27'8 7.2
2017-Nov-18 18:57N 49°24' W 123°16'817.4
2017-Nov-18 18:30N 49°26' W 123°28'0 0.7
2017-Nov-18 18:00N 49°26' W 123°28'815.9
2017-Nov-18 17:31N 49°24' W 123°17'1 1.9
2017-Nov-18 16:59N 49°23' W 123°16'816.1
2017-Nov-18 16:29N 49°26' W 123°28'1 1.1
2017-Nov-18 16:00N 49°26' W 123°28'714.4
2017-Nov-18 15:30N 49°25' W 123°17'2 3.6
2017-Nov-18 14:53N 49°23' W 123°16'615.7
2017-Nov-18 14:29N 49°25' W 123°25'2 4.5
2017-Nov-18 14:00N 49°26' W 123°28'0 0.0
2017-Nov-18 13:29N 49°26' W 123°28'0 0.0
2017-Nov-18 11:35N 49°26' W 123°28'0 0.0
2017-Nov-18 11:17N 49°26' W 123°28'0 0.0
2017-Nov-18 10:47N 49°26' W 123°28'0 0.0
2017-Nov-18 10:23N 49°26' W 123°28'0 0.0
2017-Nov-18 09:59N 49°26' W 123°28'0 0.0
2017-Nov-18 09:23N 49°26' W 123°28'0 0.0
2017-Nov-18 08:59N 49°26' W 123°28'0 0.0
2017-Nov-18 08:17N 49°26' W 123°28'0 0.0
2017-Nov-18 07:41N 49°26' W 123°28'0 0.0
2017-Nov-18 07:05N 49°26' W 123°28'0 0.0
2017-Nov-18 06:59N 49°26' W 123°28'0 0.0
2017-Nov-18 06:25N 49°26' W 123°28'613.9
2017-Nov-18 05:58N 49°26' W 123°19'3 5.5
2017-Nov-18 05:24N 49°23' W 123°16'615.3
2017-Nov-18 05:00N 49°25' W 123°25'2 4.5
2017-Nov-18 04:29N 49°26' W 123°28'816.5
2017-Nov-18 04:00N 49°23' W 123°16'1 1.3
2017-Nov-18 03:28N 49°24' W 123°17'816.9
2017-Nov-18 03:00N 49°26' W 123°28'1 2.4
2017-Nov-18 02:30N 49°25' W 123°27'7 9.6
2017-Nov-18 01:44N 49°23' W 123°16'1 4.7
2017-Nov-18 01:29N 49°24' W 123°16'816.9
2017-Nov-18 01:00N 49°26' W 123°28'1 1.5
2017-Nov-18 00:30N 49°26' W 123°27'8 7.7
2017-Nov-17 23:30N 49°23' W 123°16'815.5
2017-Nov-17 22:59N 49°26' W 123°27'1 1.2
2017-Nov-17 22:30N 49°26' W 123°28'714.0
2017-Nov-17 22:00N 49°25' W 123°18'3 5.6
2017-Nov-17 21:29N 49°23' W 123°16'5 9.8
2017-Nov-17 21:00N 49°25' W 123°22'4 8.0
2017-Nov-17 20:30N 49°26' W 123°28'3 5.1
2017-Nov-17 20:00N 49°25' W 123°25'6 7.0
2017-Nov-17 19:08N 49°23' W 123°16'316.3
2017-Nov-17 18:57N 49°25' W 123°18'714.6
2017-Nov-17 18:29N 49°26' W 123°28'0 1.0
2017-Nov-17 18:00N 49°26' W 123°28'816.1
2017-Nov-17 17:31N 49°23' W 123°16'0 0.1
2017-Nov-17 17:00N 49°23' W 123°16'816.7
2017-Nov-17 16:30N 49°26' W 123°28'0 0.5
2017-Nov-17 16:00N 49°26' W 123°28'815.5
2017-Nov-17 15:30N 49°24' W 123°17'1 1.3
2017-Nov-17 14:55N 49°23' W 123°16'716.3
2017-Nov-17 14:30N 49°25' W 123°26'2 3.5
2017-Nov-17 14:00N 49°26' W 123°28'0 0.0
2017-Nov-17 13:18N 49°26' W 123°28'0 0.0
2017-Nov-17 13:00N 49°26' W 123°28'0 0.0
2017-Nov-17 12:30N 49°26' W 123°28'0 0.0
2017-Nov-17 11:42N 49°26' W 123°28'0 0.0
2017-Nov-17 11:30N 49°26' W 123°28'0 0.0
2017-Nov-17 10:54N 49°26' W 123°28'0 0.0
2017-Nov-17 09:00N 49°26' W 123°28'0 0.0
2017-Nov-17 07:12N 49°26' W 123°28'0 0.0
2017-Nov-17 06:48N 49°26' W 123°28'0 1.2
2017-Nov-17 06:30N 49°26' W 123°28'816.4
2017-Nov-17 06:01N 49°23' W 123°16'3 5.0
2017-Nov-17 05:30N 49°25' W 123°18'714.0
2017-Nov-17 05:00N 49°26' W 123°28'2 4.6
2017-Nov-17 04:30N 49°25' W 123°25'6 7.7
2017-Nov-17 03:42N 49°23' W 123°16'414.5
2017-Nov-17 03:25N 49°25' W 123°21'511.0
2017-Nov-17 02:59N 49°26' W 123°28'5 9.5
2017-Nov-17 02:29N 49°25' W 123°21'4 8.0
2017-Nov-17 01:57N 49°23' W 123°16'4 9.5
2017-Nov-17 01:30N 49°25' W 123°21'5 9.3
2017-Nov-17 01:00N 49°26' W 123°28'5 8.9
2017-Nov-17 00:29N 49°25' W 123°21'4 6.4
2017-Nov-16 23:48N 49°23' W 123°16'2 7.3
2017-Nov-16 23:29N 49°25' W 123°17'715.2
2017-Nov-16 23:00N 49°26' W 123°28'0 0.1
2017-Nov-16 22:29N 49°26' W 123°28'815.3
2017-Nov-16 21:59N 49°24' W 123°17'1 1.3
2017-Nov-16 21:21N 49°23' W 123°16'515.9
2017-Nov-16 21:00N 49°25' W 123°24'3 5.8
2017-Nov-16 20:29N 49°26' W 123°28'611.9
2017-Nov-16 19:58N 49°26' W 123°19'3 5.2
2017-Nov-16 19:17N 49°23' W 123°16'414.7
2017-Nov-16 19:00N 49°25' W 123°21'5 9.4
2017-Nov-16 18:30N 49°26' W 123°28'3 4.8
2017-Nov-16 17:59N 49°25' W 123°25'612.2
2017-Nov-16 17:29N 49°23' W 123°16'1 3.0
2017-Nov-16 17:00N 49°24' W 123°17'815.8
2017-Nov-16 16:30N 49°26' W 123°28'0 0.1
2017-Nov-16 16:00N 49°26' W 123°28'815.2
2017-Nov-16 15:29N 49°24' W 123°17'1 1.8
2017-Nov-16 14:56N 49°23' W 123°16'715.3
2017-Nov-16 14:29N 49°25' W 123°26'2 3.4
2017-Nov-16 14:00N 49°26' W 123°28'0 0.0
2017-Nov-16 13:30N 49°26' W 123°28'0 0.0
2017-Nov-16 12:58N 49°26' W 123°28'0 0.0
2017-Nov-16 12:28N 49°26' W 123°28'0 0.0
2017-Nov-16 11:55N 49°26' W 123°28'0 0.0
2017-Nov-16 11:22N 49°26' W 123°28'0 0.0
2017-Nov-16 10:49N 49°26' W 123°28'0 0.0
2017-Nov-16 10:28N 49°26' W 123°28'0 0.0
2017-Nov-16 09:55N 49°26' W 123°28'0 0.0
2017-Nov-16 09:22N 49°26' W 123°28'0 0.0
2017-Nov-16 08:58N 49°26' W 123°28'0 0.0
2017-Nov-16 07:49N 49°26' W 123°28'0 0.0
2017-Nov-16 07:22N 49°26' W 123°28'0 0.0
2017-Nov-16 06:34N 49°26' W 123°28'0 0.0
2017-Nov-16 06:26N 49°26' W 123°28'613.8
2017-Nov-16 06:00N 49°26' W 123°19'4 7.3
2017-Nov-16 05:29N 49°23' W 123°16'510.7
2017-Nov-16 05:00N 49°25' W 123°23'3 6.7
2017-Nov-16 04:29N 49°26' W 123°28'714.3
2017-Nov-16 03:58N 49°24' W 123°17'2 4.0
2017-Nov-16 03:29N 49°23' W 123°16'714.1
2017-Nov-16 03:00N 49°25' W 123°26'2 3.8
2017-Nov-16 02:30N 49°26' W 123°28'714.1
2017-Nov-16 01:59N 49°25' W 123°17'2 3.5
2017-Nov-16 01:26N 49°23' W 123°16'715.9
2017-Nov-16 01:00N 49°25' W 123°26'2 3.2
2017-Nov-16 00:30N 49°26' W 123°28'815.3
2017-Nov-16 00:00N 49°24' W 123°17'1 1.8
2017-Nov-15 23:21N 49°23' W 123°16'514.1
2017-Nov-15 22:58N 49°25' W 123°23'3 6.9
2017-Nov-15 22:30N 49°26' W 123°28'4 7.7
2017-Nov-15 21:59N 49°25' W 123°22'5 6.2
2017-Nov-15 21:13N 49°23' W 123°16'315.1
2017-Nov-15 21:00N 49°26' W 123°18'713.4
2017-Nov-15 20:30N 49°26' W 123°28'1 2.8
2017-Nov-15 20:01N 49°25' W 123°26'7 9.5
2017-Nov-15 19:15N 49°23' W 123°16'1 3.8
2017-Nov-15 18:59N 49°24' W 123°16'816.5
2017-Nov-15 18:30N 49°26' W 123°28'1 1.3
2017-Nov-15 18:00N 49°26' W 123°27'813.5
2017-Nov-15 17:26N 49°23' W 123°16'1 2.3
2017-Nov-15 17:00N 49°24' W 123°16'816.7
2017-Nov-15 16:30N 49°26' W 123°28'0 0.3
2017-Nov-15 16:00N 49°26' W 123°28'815.5
2017-Nov-15 15:31N 49°24' W 123°17'1 2.3
2017-Nov-15 15:00N 49°23' W 123°16'714.8
2017-Nov-15 14:30N 49°25' W 123°27'1 2.4
2017-Nov-15 14:00N 49°26' W 123°28'0 0.0
2017-Nov-15 13:05N 49°26' W 123°28'0 0.0
2017-Nov-15 11:41N 49°26' W 123°28'0 0.0
2017-Nov-15 11:17N 49°26' W 123°28'0 0.0
2017-Nov-15 10:11N 49°26' W 123°28'0 0.0
2017-Nov-15 09:41N 49°26' W 123°28'0 0.0
2017-Nov-15 08:59N 49°26' W 123°28'0 0.0
2017-Nov-15 07:11N 49°26' W 123°28'0 0.0
2017-Nov-15 06:59N 49°26' W 123°28'0 0.0
2017-Nov-15 06:28N 49°26' W 123°28'713.3
2017-Nov-15 05:59N 49°26' W 123°18'4 7.3
2017-Nov-15 05:30N 49°23' W 123°16'510.6
2017-Nov-15 04:59N 49°25' W 123°23'3 6.5
2017-Nov-15 04:29N 49°26' W 123°28'814.6
2017-Nov-15 03:56N 49°24' W 123°17'1 2.5
2017-Nov-15 03:27N 49°23' W 123°16'613.1
2017-Nov-15 03:00N 49°25' W 123°24'3 5.1
2017-Nov-15 02:29N 49°26' W 123°28'715.1
2017-Nov-15 02:00N 49°25' W 123°17'2 4.2
2017-Nov-15 01:29N 49°23' W 123°16'815.9
2017-Nov-15 01:00N 49°26' W 123°27'0 0.1
2017-Nov-15 00:29N 49°26' W 123°27'8 7.6
2017-Nov-14 23:29N 49°23' W 123°16'815.8
2017-Nov-14 23:00N 49°26' W 123°27'1 1.4
2017-Nov-14 22:28N 49°26' W 123°28'715.8
2017-Nov-14 22:00N 49°25' W 123°17'2 3.6
2017-Nov-14 21:25N 49°23' W 123°16'614.9
2017-Nov-14 21:00N 49°25' W 123°25'2 4.6
2017-Nov-14 20:30N 49°26' W 123°28'611.7
2017-Nov-14 20:00N 49°26' W 123°20'4 5.2
2017-Nov-14 19:17N 49°23' W 123°16'413.5
2017-Nov-14 19:00N 49°26' W 123°20'510.1
2017-Nov-14 18:29N 49°26' W 123°28'2 4.0
2017-Nov-14 18:00N 49°25' W 123°26'7 6.9
2017-Nov-14 17:03N 49°23' W 123°16'115.1
2017-Nov-14 17:00N 49°24' W 123°16'816.1
2017-Nov-14 16:30N 49°26' W 123°28'0 0.5
2017-Nov-14 16:00N 49°26' W 123°28'815.5
2017-Nov-14 15:28N 49°23' W 123°16'0 0.6
2017-Nov-14 14:56N 49°23' W 123°16'715.1
2017-Nov-14 14:30N 49°25' W 123°26'2 3.8
2017-Nov-14 14:00N 49°26' W 123°28'0 0.0
2017-Nov-14 13:27N 49°26' W 123°28'0 0.0
2017-Nov-14 12:42N 49°26' W 123°28'0 0.0
2017-Nov-14 12:30N 49°26' W 123°28'0 0.0
2017-Nov-14 12:00N 49°26' W 123°28'0 0.0
2017-Nov-14 11:24N 49°26' W 123°28'0 0.0
2017-Nov-14 10:54N 49°26' W 123°28'0 0.0
2017-Nov-14 09:42N 49°26' W 123°28'0 0.0
2017-Nov-14 09:21N 49°26' W 123°28'0 0.0
2017-Nov-14 08:09N 49°26' W 123°28'0 0.0
2017-Nov-14 07:51N 49°26' W 123°28'0 0.0
2017-Nov-14 07:30N 49°26' W 123°28'0 0.0
2017-Nov-14 07:00N 49°26' W 123°28'0 0.1
2017-Nov-14 06:31N 49°26' W 123°28'815.0
2017-Nov-14 05:59N 49°24' W 123°17'1 2.2
2017-Nov-14 05:31N 49°23' W 123°16'816.2
2017-Nov-14 05:00N 49°26' W 123°28'1 1.9
2017-Nov-14 04:30N 49°26' W 123°27'813.8
2017-Nov-14 03:58N 49°23' W 123°16'3 6.6
2017-Nov-14 03:26N 49°26' W 123°19'614.8
2017-Nov-14 03:00N 49°26' W 123°28'1 3.0
2017-Nov-14 02:30N 49°25' W 123°26'7 7.4
2017-Nov-14 01:34N 49°23' W 123°16'119.0
2017-Nov-14 01:30N 49°25' W 123°17'815.4
2017-Nov-14 01:00N 49°26' W 123°28'0 0.3
2017-Nov-14 00:30N 49°26' W 123°28'815.9
2017-Nov-13 23:59N 49°23' W 123°16'0 0.6
2017-Nov-13 23:27N 49°23' W 123°16'715.2
2017-Nov-13 23:00N 49°25' W 123°26'2 3.5
2017-Nov-13 22:31N 49°26' W 123°28'4 8.0
2017-Nov-13 22:00N 49°25' W 123°22'4 0.2
2017-Nov-13 02:00N 49°24' W 123°17'1 1.9
2017-Nov-13 01:30N 49°23' W 123°16'816.0
2017-Nov-13 01:00N 49°26' W 123°27'1 1.3
2017-Nov-13 00:31N 49°26' W 123°28'714.0
2017-Nov-12 23:59N 49°25' W 123°17'2 2.6
2017-Nov-12 23:20N 49°23' W 123°16'516.0
2017-Nov-12 23:00N 49°25' W 123°23'3 6.4
2017-Nov-12 22:29N 49°26' W 123°28'3 6.2
2017-Nov-12 21:59N 49°25' W 123°24'6 6.7
2017-Nov-12 21:10N 49°23' W 123°16'317.2
2017-Nov-12 21:01N 49°25' W 123°18'713.8
2017-Nov-12 20:30N 49°26' W 123°28'1 2.0
2017-Nov-12 20:00N 49°25' W 123°27'7 7.6
2017-Nov-12 19:01N 49°23' W 123°16'012.2
2017-Nov-12 19:00N 49°23' W 123°16'816.2
2017-Nov-12 18:30N 49°26' W 123°28'0 0.1
2017-Nov-12 18:00N 49°26' W 123°28'816.4
2017-Nov-12 17:30N 49°23' W 123°16'0 0.3
2017-Nov-12 17:00N 49°23' W 123°16'714.8
2017-Nov-12 16:30N 49°25' W 123°27'1 2.6
2017-Nov-12 16:00N 49°26' W 123°28'714.0
2017-Nov-12 15:30N 49°25' W 123°17'3 4.9
2017-Nov-12 14:58N 49°23' W 123°16'613.7
2017-Nov-12 14:30N 49°25' W 123°25'2 4.5
2017-Nov-12 14:00N 49°26' W 123°28'0 0.0
2017-Nov-12 12:59N 49°26' W 123°28'0 0.0
2017-Nov-12 11:47N 49°26' W 123°28'0 0.0
2017-Nov-12 11:23N 49°26' W 123°28'0 0.0
2017-Nov-12 10:59N 49°26' W 123°28'0 0.0
2017-Nov-12 10:23N 49°26' W 123°28'0 0.0
2017-Nov-12 09:59N 49°26' W 123°28'0 0.0
2017-Nov-12 09:26N 49°26' W 123°28'0 0.0
2017-Nov-12 08:53N 49°26' W 123°28'0 0.0
2017-Nov-12 08:05N 49°26' W 123°28'0 0.0
2017-Nov-12 06:53N 49°26' W 123°28'0 0.0
2017-Nov-12 06:29N 49°26' W 123°28'612.3
2017-Nov-12 05:59N 49°26' W 123°19'4 6.3
2017-Nov-12 05:26N 49°23' W 123°16'613.1
2017-Nov-12 05:00N 49°25' W 123°24'3 5.9
2017-Nov-12 04:30N 49°26' W 123°28'714.0
2017-Nov-12 04:00N 49°25' W 123°17'2 4.3
2017-Nov-12 03:26N 49°23' W 123°16'716.6
2017-Nov-12 03:01N 49°25' W 123°26'1 2.4
2017-Nov-12 02:30N 49°26' W 123°28'816.3
2017-Nov-12 02:01N 49°23' W 123°16'0 0.4
2017-Nov-12 01:30N 49°23' W 123°16'816.5
2017-Nov-12 01:01N 49°26' W 123°28'1 2.5
2017-Nov-12 00:30N 49°25' W 123°27'713.2
2017-Nov-11 23:57N 49°23' W 123°16'2 4.0
2017-Nov-11 23:30N 49°24' W 123°17'815.2
2017-Nov-11 23:00N 49°26' W 123°28'0 0.7
2017-Nov-11 22:30N 49°26' W 123°28'8 8.8
2017-Nov-11 21:34N 49°23' W 123°16'0 3.8
2017-Nov-11 21:28N 49°23' W 123°16'816.3
2017-Nov-11 20:59N 49°26' W 123°27'1 1.2
2017-Nov-11 20:30N 49°26' W 123°28'815.0
2017-Nov-11 20:00N 49°25' W 123°17'2 3.5
2017-Nov-11 19:25N 49°23' W 123°16'510.5
2017-Nov-11 18:59N 49°25' W 123°22'4 9.1
2017-Nov-11 18:30N 49°26' W 123°28'2 4.4
2017-Nov-11 18:00N 49°25' W 123°25'612.1
2017-Nov-11 17:29N 49°23' W 123°16'1 1.6
2017-Nov-11 16:58N 49°23' W 123°16'817.1
2017-Nov-11 16:30N 49°26' W 123°28'0 0.3
2017-Nov-11 15:59N 49°26' W 123°28'713.5
2017-Nov-11 15:29N 49°25' W 123°17'2 4.2
2017-Nov-11 14:56N 49°23' W 123°16'614.3
2017-Nov-11 14:30N 49°25' W 123°25'2 4.9
2017-Nov-11 14:00N 49°26' W 123°28'0 0.0
2017-Nov-11 13:15N 49°26' W 123°28'0 0.0
2017-Nov-11 12:57N 49°26' W 123°28'0 0.0
2017-Nov-11 11:45N 49°26' W 123°28'0 0.0
2017-Nov-11 11:21N 49°26' W 123°28'0 0.0
2017-Nov-11 10:51N 49°26' W 123°28'0 0.0
2017-Nov-11 10:15N 49°26' W 123°28'0 0.0
2017-Nov-11 09:33N 49°26' W 123°28'0 0.0
2017-Nov-11 09:27N 49°26' W 123°28'0 0.0
2017-Nov-11 08:57N 49°26' W 123°28'0 0.0
2017-Nov-11 08:15N 49°26' W 123°28'0 0.0
2017-Nov-11 07:51N 49°26' W 123°28'0 0.0
2017-Nov-11 07:27N 49°26' W 123°28'0 1.0
2017-Nov-11 07:00N 49°26' W 123°28'815.7
2017-Nov-11 06:30N 49°23' W 123°16'0 0.9
2017-Nov-11 05:58N 49°23' W 123°16'611.7
2017-Nov-11 05:30N 49°25' W 123°24'3 6.2
2017-Nov-11 05:00N 49°26' W 123°28'813.3
2017-Nov-11 04:26N 49°24' W 123°17'2 3.3
2017-Nov-11 03:52N 49°23' W 123°16'411.0
2017-Nov-11 03:30N 49°26' W 123°20'510.4
2017-Nov-11 03:00N 49°26' W 123°28'5 9.4
2017-Nov-11 02:28N 49°26' W 123°21'4 9.0
2017-Nov-11 02:00N 49°23' W 123°16'4 6.8
2017-Nov-11 01:25N 49°26' W 123°20'512.6
2017-Nov-11 01:00N 49°26' W 123°28'2 3.0
2017-Nov-11 00:30N 49°25' W 123°26'711.6
2017-Nov-10 23:53N 49°23' W 123°16'0 0.3
2017-Nov-10 23:29N 49°23' W 123°16'715.7
2017-Nov-10 23:00N 49°25' W 123°27'1 2.2
2017-Nov-10 22:30N 49°26' W 123°28'714.4
2017-Nov-10 22:00N 49°25' W 123°17'3 5.2
2017-Nov-10 21:30N 49°23' W 123°16'510.2
2017-Nov-10 21:00N 49°25' W 123°23'3 6.9
2017-Nov-10 20:30N 49°26' W 123°28'612.1
2017-Nov-10 19:59N 49°26' W 123°19'3 3.7
2017-Nov-10 19:13N 49°23' W 123°16'416.8
2017-Nov-10 19:00N 49°25' W 123°21'5 9.6
2017-Nov-10 18:30N 49°26' W 123°28'3 6.6
2017-Nov-10 18:00N 49°25' W 123°23'5 8.4
2017-Nov-10 17:22N 49°23' W 123°16'1 3.0
2017-Nov-10 16:59N 49°24' W 123°16'816.4
2017-Nov-10 16:29N 49°26' W 123°28'0 0.2
2017-Nov-10 16:00N 49°26' W 123°28'815.6
2017-Nov-10 15:28N 49°23' W 123°16'1 1.2
2017-Nov-10 14:56N 49°23' W 123°16'615.0
2017-Nov-10 14:31N 49°25' W 123°25'2 4.0
2017-Nov-10 13:56N 49°26' W 123°28'0 0.0
2017-Nov-10 09:56N 49°26' W 123°28'0 0.0
2017-Nov-10 07:56N 49°26' W 123°28'0 0.0
2017-Nov-10 07:29N 49°26' W 123°28'0 0.0
2017-Nov-10 06:56N 49°26' W 123°28'612.9
2017-Nov-10 06:28N 49°26' W 123°19'3 6.3
2017-Nov-10 05:55N 49°23' W 123°16'615.5
2017-Nov-10 05:30N 49°25' W 123°25'2 4.1
2017-Nov-10 04:58N 49°26' W 123°28'716.0
2017-Nov-10 04:31N 49°24' W 123°17'2 3.1
2017-Nov-10 03:57N 49°23' W 123°16'715.7
2017-Nov-10 03:30N 49°25' W 123°26'1 2.9
2017-Nov-10 03:00N 49°26' W 123°28'815.3
2017-Nov-10 02:29N 49°24' W 123°17'1 1.4
2017-Nov-10 01:51N 49°23' W 123°16'515.6
2017-Nov-10 01:30N 49°25' W 123°24'3 6.0
2017-Nov-10 00:59N 49°26' W 123°28'3 6.0
2017-Nov-10 00:31N 49°25' W 123°24'6 7.7
2017-Nov-09 23:46N 49°23' W 123°16'1 3.5
2017-Nov-09 23:30N 49°24' W 123°16'  
Track history (hours):
 
Tides and Currents Weather Stations Pressure Air Temp Water Temp Dewpoint Dewpoint Depression Visibility Wind Speed Wind Dir Waves Ship Positions

Queen Of Surrey

Last reported at 2017-Nov-19 23:25 UTC. Time now 2017-Nov-20 00:26 UTC.
Position N 49°23' W 123°16'.

Length 140 m; draft 6 m.

Type: Passenger vessel. MMSI: 316001262.

Date/timePositionNaut miles runAvg speedWind from/ knotsBaromVisibWave heightAir tempDewpointWater temp
2017-Nov-19 23:25N 49°23' W 123°16'716.1
2017-Nov-19 23:00N 49°25' W 123°26'2 2.7
2017-Nov-19 22:21N 49°26' W 123°28'514.7
2017-Nov-19 22:00N 49°26' W 123°20'4 4.6
2017-Nov-19 21:11N 49°23' W 123°16'415.1
2017-Nov-19 20:53N 49°25' W 123°22'4 5.6
2017-Nov-19 20:08N 49°26' W 123°28'1 8.2
2017-Nov-19 20:00N 49°25' W 123°27'8 9.2
2017-Nov-19 19:11N 49°23' W 123°16'0 1.8
2017-Nov-19 19:00N 49°23' W 123°16'815.9
2017-Nov-19 18:30N 49°26' W 123°28'0 0.7
2017-Nov-19 18:00N 49°26' W 123°28'816.4
2017-Nov-19 17:29N 49°23' W 123°16'0 0.3
2017-Nov-19 17:00N 49°23' W 123°16'815.4
2017-Nov-19 16:30N 49°26' W 123°27'1 1.5
2017-Nov-19 15:58N 49°26' W 123°28'715.4
2017-Nov-19 15:30N 49°25' W 123°17'2 4.6
2017-Nov-19 14:59N 49°23' W 123°16'713.7
2017-Nov-19 14:29N 49°25' W 123°26'2 0.4
2017-Nov-19 09:56N 49°26' W 123°28'0 0.0
2017-Nov-19 06:27N 49°26' W 123°28'613.2
2017-Nov-19 05:59N 49°26' W 123°19'4 6.9
2017-Nov-19 05:28N 49°23' W 123°16'511.8
2017-Nov-19 05:00N 49°25' W 123°23'3 6.6
2017-Nov-19 04:30N 49°26' W 123°28'713.8
2017-Nov-19 03:58N 49°25' W 123°17'2 2.8
2017-Nov-19 03:22N 49°23' W 123°16'616.2
2017-Nov-19 03:00N 49°25' W 123°24'3 5.2
2017-Nov-19 02:29N 49°26' W 123°28'814.5
2017-Nov-19 01:56N 49°24' W 123°17'1 1.3
2017-Nov-19 01:23N 49°23' W 123°16'616.1
2017-Nov-19 01:00N 49°25' W 123°25'2 4.1
2017-Nov-19 00:29N 49°26' W 123°28'814.1
2017-Nov-18 23:55N 49°24' W 123°17'1 2.0
2017-Nov-18 23:20N 49°23' W 123°16'513.7
2017-Nov-18 22:59N 49°25' W 123°23'4 8.0
2017-Nov-18 22:30N 49°26' W 123°28'4 6.8
2017-Nov-18 21:57N 49°25' W 123°23'5 6.9
2017-Nov-18 21:13N 49°23' W 123°16'312.4
2017-Nov-18 21:00N 49°25' W 123°18'713.6
2017-Nov-18 20:29N 49°26' W 123°28'1 1.4
2017-Nov-18 20:00N 49°26' W 123°27'8 7.2
2017-Nov-18 18:57N 49°24' W 123°16'817.4
2017-Nov-18 18:30N 49°26' W 123°28'0 0.7
2017-Nov-18 18:00N 49°26' W 123°28'815.9
2017-Nov-18 17:31N 49°24' W 123°17'1 1.9
2017-Nov-18 16:59N 49°23' W 123°16'816.1
2017-Nov-18 16:29N 49°26' W 123°28'1 1.1
2017-Nov-18 16:00N 49°26' W 123°28'714.4
2017-Nov-18 15:30N 49°25' W 123°17'2 3.6
2017-Nov-18 14:53N 49°23' W 123°16'615.7
2017-Nov-18 14:29N 49°25' W 123°25'2 4.5
2017-Nov-18 14:00N 49°26' W 123°28'0 0.0
2017-Nov-18 13:29N 49°26' W 123°28'0 0.0
2017-Nov-18 11:35N 49°26' W 123°28'0 0.0
2017-Nov-18 11:17N 49°26' W 123°28'0 0.0
2017-Nov-18 10:47N 49°26' W 123°28'0 0.0
2017-Nov-18 10:23N 49°26' W 123°28'0 0.0
2017-Nov-18 09:59N 49°26' W 123°28'0 0.0
2017-Nov-18 09:23N 49°26' W 123°28'0 0.0
2017-Nov-18 08:59N 49°26' W 123°28'0 0.0
2017-Nov-18 08:17N 49°26' W 123°28'0 0.0
2017-Nov-18 07:41N 49°26' W 123°28'0 0.0
2017-Nov-18 07:05N 49°26' W 123°28'0 0.0
2017-Nov-18 06:59N 49°26' W 123°28'0 0.0
2017-Nov-18 06:25N 49°26' W 123°28'613.9
2017-Nov-18 05:58N 49°26' W 123°19'3 5.5
2017-Nov-18 05:24N 49°23' W 123°16'615.3
2017-Nov-18 05:00N 49°25' W 123°25'2 4.5
2017-Nov-18 04:29N 49°26' W 123°28'816.5
2017-Nov-18 04:00N 49°23' W 123°16'1 1.3
2017-Nov-18 03:28N 49°24' W 123°17'816.9
2017-Nov-18 03:00N 49°26' W 123°28'1 2.4
2017-Nov-18 02:30N 49°25' W 123°27'7 9.6
2017-Nov-18 01:44N 49°23' W 123°16'1 4.7
2017-Nov-18 01:29N 49°24' W 123°16'816.9
2017-Nov-18 01:00N 49°26' W 123°28'1 1.5
2017-Nov-18 00:30N 49°26' W 123°27'8 7.7
2017-Nov-17 23:30N 49°23' W 123°16'815.5
2017-Nov-17 22:59N 49°26' W 123°27'1 1.2
2017-Nov-17 22:30N 49°26' W 123°28'714.0
2017-Nov-17 22:00N 49°25' W 123°18'3 5.6
2017-Nov-17 21:29N 49°23' W 123°16'5 9.8
2017-Nov-17 21:00N 49°25' W 123°22'4 8.0
2017-Nov-17 20:30N 49°26' W 123°28'3 5.1
2017-Nov-17 20:00N 49°25' W 123°25'6 7.0
2017-Nov-17 19:08N 49°23' W 123°16'316.3
2017-Nov-17 18:57N 49°25' W 123°18'714.6
2017-Nov-17 18:29N 49°26' W 123°28'0 1.0
2017-Nov-17 18:00N 49°26' W 123°28'816.1
2017-Nov-17 17:31N 49°23' W 123°16'0 0.1
2017-Nov-17 17:00N 49°23' W 123°16'816.7
2017-Nov-17 16:30N 49°26' W 123°28'0 0.5
2017-Nov-17 16:00N 49°26' W 123°28'815.5
2017-Nov-17 15:30N 49°24' W 123°17'1 1.3
2017-Nov-17 14:55N 49°23' W 123°16'716.3
2017-Nov-17 14:30N 49°25' W 123°26'2 3.5
2017-Nov-17 14:00N 49°26' W 123°28'0 0.0
2017-Nov-17 13:18N 49°26' W 123°28'0 0.0
2017-Nov-17 13:00N 49°26' W 123°28'0 0.0
2017-Nov-17 12:30N 49°26' W 123°28'0 0.0
2017-Nov-17 11:42N 49°26' W 123°28'0 0.0
2017-Nov-17 11:30N 49°26' W 123°28'0 0.0
2017-Nov-17 10:54N 49°26' W 123°28'0 0.0
2017-Nov-17 09:00N 49°26' W 123°28'0 0.0
2017-Nov-17 07:12N 49°26' W 123°28'0 0.0
2017-Nov-17 06:48N 49°26' W 123°28'0 1.2
2017-Nov-17 06:30N 49°26' W 123°28'816.4
2017-Nov-17 06:01N 49°23' W 123°16'3 5.0
2017-Nov-17 05:30N 49°25' W 123°18'714.0
2017-Nov-17 05:00N 49°26' W 123°28'2 4.6
2017-Nov-17 04:30N 49°25' W 123°25'6 7.7
2017-Nov-17 03:42N 49°23' W 123°16'414.5
2017-Nov-17 03:25N 49°25' W 123°21'511.0
2017-Nov-17 02:59N 49°26' W 123°28'5 9.5
2017-Nov-17 02:29N 49°25' W 123°21'4 8.0
2017-Nov-17 01:57N 49°23' W 123°16'4 9.5
2017-Nov-17 01:30N 49°25' W 123°21'5 9.3
2017-Nov-17 01:00N 49°26' W 123°28'5 8.9
2017-Nov-17 00:29N 49°25' W 123°21'4 6.4
2017-Nov-16 23:48N 49°23' W 123°16'2 7.3
2017-Nov-16 23:29N 49°25' W 123°17'715.2
2017-Nov-16 23:00N 49°26' W 123°28'0 0.1
2017-Nov-16 22:29N 49°26' W 123°28'815.3
2017-Nov-16 21:59N 49°24' W 123°17'1 1.3
2017-Nov-16 21:21N 49°23' W 123°16'515.9
2017-Nov-16 21:00N 49°25' W 123°24'3 5.8
2017-Nov-16 20:29N 49°26' W 123°28'611.9
2017-Nov-16 19:58N 49°26' W 123°19'3 5.2
2017-Nov-16 19:17N 49°23' W 123°16'414.7
2017-Nov-16 19:00N 49°25' W 123°21'5 9.4
2017-Nov-16 18:30N 49°26' W 123°28'3 4.8
2017-Nov-16 17:59N 49°25' W 123°25'612.2
2017-Nov-16 17:29N 49°23' W 123°16'1 3.0
2017-Nov-16 17:00N 49°24' W 123°17'815.8
2017-Nov-16 16:30N 49°26' W 123°28'0 0.1
2017-Nov-16 16:00N 49°26' W 123°28'815.2
2017-Nov-16 15:29N 49°24' W 123°17'1 1.8
2017-Nov-16 14:56N 49°23' W 123°16'715.3
2017-Nov-16 14:29N 49°25' W 123°26'2 3.4
2017-Nov-16 14:00N 49°26' W 123°28'0 0.0
2017-Nov-16 13:30N 49°26' W 123°28'0 0.0
2017-Nov-16 12:58N 49°26' W 123°28'0 0.0
2017-Nov-16 12:28N 49°26' W 123°28'0 0.0
2017-Nov-16 11:55N 49°26' W 123°28'0 0.0
2017-Nov-16 11:22N 49°26' W 123°28'0 0.0
2017-Nov-16 10:49N 49°26' W 123°28'0 0.0
2017-Nov-16 10:28N 49°26' W 123°28'0 0.0
2017-Nov-16 09:55N 49°26' W 123°28'0 0.0
2017-Nov-16 09:22N 49°26' W 123°28'0 0.0
2017-Nov-16 08:58N 49°26' W 123°28'0 0.0
2017-Nov-16 07:49N 49°26' W 123°28'0 0.0
2017-Nov-16 07:22N 49°26' W 123°28'0 0.0
2017-Nov-16 06:34N 49°26' W 123°28'0 0.0
2017-Nov-16 06:26N 49°26' W 123°28'613.8
2017-Nov-16 06:00N 49°26' W 123°19'4 7.3
2017-Nov-16 05:29N 49°23' W 123°16'510.7
2017-Nov-16 05:00N 49°25' W 123°23'3 6.7
2017-Nov-16 04:29N 49°26' W 123°28'714.3
2017-Nov-16 03:58N 49°24' W 123°17'2 4.0
2017-Nov-16 03:29N 49°23' W 123°16'714.1
2017-Nov-16 03:00N 49°25' W 123°26'2 3.8
2017-Nov-16 02:30N 49°26' W 123°28'714.1
2017-Nov-16 01:59N 49°25' W 123°17'2 3.5
2017-Nov-16 01:26N 49°23' W 123°16'715.9
2017-Nov-16 01:00N 49°25' W 123°26'2 3.2
2017-Nov-16 00:30N 49°26' W 123°28'815.3
2017-Nov-16 00:00N 49°24' W 123°17'1 1.8
2017-Nov-15 23:21N 49°23' W 123°16'514.1
2017-Nov-15 22:58N 49°25' W 123°23'3 6.9
2017-Nov-15 22:30N 49°26' W 123°28'4 7.7
2017-Nov-15 21:59N 49°25' W 123°22'5 6.2
2017-Nov-15 21:13N 49°23' W 123°16'315.1
2017-Nov-15 21:00N 49°26' W 123°18'713.4
2017-Nov-15 20:30N 49°26' W 123°28'1 2.8
2017-Nov-15 20:01N 49°25' W 123°26'7 9.5
2017-Nov-15 19:15N 49°23' W 123°16'1 3.8
2017-Nov-15 18:59N 49°24' W 123°16'816.5
2017-Nov-15 18:30N 49°26' W 123°28'1 1.3
2017-Nov-15 18:00N 49°26' W 123°27'813.5
2017-Nov-15 17:26N 49°23' W 123°16'1 2.3
2017-Nov-15 17:00N 49°24' W 123°16'816.7
2017-Nov-15 16:30N 49°26' W 123°28'0 0.3
2017-Nov-15 16:00N 49°26' W 123°28'815.5
2017-Nov-15 15:31N 49°24' W 123°17'1 2.3
2017-Nov-15 15:00N 49°23' W 123°16'714.8
2017-Nov-15 14:30N 49°25' W 123°27'1 2.4
2017-Nov-15 14:00N 49°26' W 123°28'0 0.0
2017-Nov-15 13:05N 49°26' W 123°28'0 0.0
2017-Nov-15 11:41N 49°26' W 123°28'0 0.0
2017-Nov-15 11:17N 49°26' W 123°28'0 0.0
2017-Nov-15 10:11N 49°26' W 123°28'0 0.0
2017-Nov-15 09:41N 49°26' W 123°28'0 0.0
2017-Nov-15 08:59N 49°26' W 123°28'0 0.0
2017-Nov-15 07:11N 49°26' W 123°28'0 0.0
2017-Nov-15 06:59N 49°26' W 123°28'0 0.0
2017-Nov-15 06:28N 49°26' W 123°28'713.3
2017-Nov-15 05:59N 49°26' W 123°18'4 7.3
2017-Nov-15 05:30N 49°23' W 123°16'510.6
2017-Nov-15 04:59N 49°25' W 123°23'3 6.5
2017-Nov-15 04:29N 49°26' W 123°28'814.6
2017-Nov-15 03:56N 49°24' W 123°17'1 2.5
2017-Nov-15 03:27N 49°23' W 123°16'613.1
2017-Nov-15 03:00N 49°25' W 123°24'3 5.1
2017-Nov-15 02:29N 49°26' W 123°28'715.1
2017-Nov-15 02:00N 49°25' W 123°17'2 4.2
2017-Nov-15 01:29N 49°23' W 123°16'815.9
2017-Nov-15 01:00N 49°26' W 123°27'0 0.1
2017-Nov-15 00:29N 49°26' W 123°27'8 7.6
2017-Nov-14 23:29N 49°23' W 123°16'815.8
2017-Nov-14 23:00N 49°26' W 123°27'1 1.4
2017-Nov-14 22:28N 49°26' W 123°28'715.8
2017-Nov-14 22:00N 49°25' W 123°17'2 3.6
2017-Nov-14 21:25N 49°23' W 123°16'614.9
2017-Nov-14 21:00N 49°25' W 123°25'2 4.6
2017-Nov-14 20:30N 49°26' W 123°28'611.7
2017-Nov-14 20:00N 49°26' W 123°20'4 5.2
2017-Nov-14 19:17N 49°23' W 123°16'413.5
2017-Nov-14 19:00N 49°26' W 123°20'510.1
2017-Nov-14 18:29N 49°26' W 123°28'2 4.0
2017-Nov-14 18:00N 49°25' W 123°26'7 6.9
2017-Nov-14 17:03N 49°23' W 123°16'115.1
2017-Nov-14 17:00N 49°24' W 123°16'816.1
2017-Nov-14 16:30N 49°26' W 123°28'0 0.5
2017-Nov-14 16:00N 49°26' W 123°28'815.5
2017-Nov-14 15:28N 49°23' W 123°16'0 0.6
2017-Nov-14 14:56N 49°23' W 123°16'715.1
2017-Nov-14 14:30N 49°25' W 123°26'2 3.8
2017-Nov-14 14:00N 49°26' W 123°28'0 0.0
2017-Nov-14 13:27N 49°26' W 123°28'0 0.0
2017-Nov-14 12:42N 49°26' W 123°28'0 0.0
2017-Nov-14 12:30N 49°26' W 123°28'0 0.0
2017-Nov-14 12:00N 49°26' W 123°28'0 0.0
2017-Nov-14 11:24N 49°26' W 123°28'0 0.0
2017-Nov-14 10:54N 49°26' W 123°28'0 0.0
2017-Nov-14 09:42N 49°26' W 123°28'0 0.0
2017-Nov-14 09:21N 49°26' W 123°28'0 0.0
2017-Nov-14 08:09N 49°26' W 123°28'0 0.0
2017-Nov-14 07:51N 49°26' W 123°28'0 0.0
2017-Nov-14 07:30N 49°26' W 123°28'0 0.0
2017-Nov-14 07:00N 49°26' W 123°28'0 0.1
2017-Nov-14 06:31N 49°26' W 123°28'815.0
2017-Nov-14 05:59N 49°24' W 123°17'1 2.2
2017-Nov-14 05:31N 49°23' W 123°16'816.2
2017-Nov-14 05:00N 49°26' W 123°28'1 1.9
2017-Nov-14 04:30N 49°26' W 123°27'813.8
2017-Nov-14 03:58N 49°23' W 123°16'3 6.6
2017-Nov-14 03:26N 49°26' W 123°19'614.8
2017-Nov-14 03:00N 49°26' W 123°28'1 3.0
2017-Nov-14 02:30N 49°25' W 123°26'7 7.4
2017-Nov-14 01:34N 49°23' W 123°16'119.0
2017-Nov-14 01:30N 49°25' W 123°17'815.4
2017-Nov-14 01:00N 49°26' W 123°28'0 0.3
2017-Nov-14 00:30N 49°26' W 123°28'815.9
2017-Nov-13 23:59N 49°23' W 123°16'0 0.6
2017-Nov-13 23:27N 49°23' W 123°16'715.2
2017-Nov-13 23:00N 49°25' W 123°26'2 3.5
2017-Nov-13 22:31N 49°26' W 123°28'4 8.0
2017-Nov-13 22:00N 49°25' W 123°22'4 0.2
2017-Nov-13 02:00N 49°24' W 123°17'1 1.9
2017-Nov-13 01:30N 49°23' W 123°16'816.0
2017-Nov-13 01:00N 49°26' W 123°27'1 1.3
2017-Nov-13 00:31N 49°26' W 123°28'714.0
2017-Nov-12 23:59N 49°25' W 123°17'2 2.6
2017-Nov-12 23:20N 49°23' W 123°16'516.0
2017-Nov-12 23:00N 49°25' W 123°23'3 6.4
2017-Nov-12 22:29N 49°26' W 123°28'3 6.2
2017-Nov-12 21:59N 49°25' W 123°24'6 6.7
2017-Nov-12 21:10N 49°23' W 123°16'317.2
2017-Nov-12 21:01N 49°25' W 123°18'713.8
2017-Nov-12 20:30N 49°26' W 123°28'1 2.0
2017-Nov-12 20:00N 49°25' W 123°27'7 7.6
2017-Nov-12 19:01N 49°23' W 123°16'012.2
2017-Nov-12 19:00N 49°23' W 123°16'816.2
2017-Nov-12 18:30N 49°26' W 123°28'0 0.1
2017-Nov-12 18:00N 49°26' W 123°28'816.4
2017-Nov-12 17:30N 49°23' W 123°16'0 0.3
2017-Nov-12 17:00N 49°23' W 123°16'714.8
2017-Nov-12 16:30N 49°25' W 123°27'1 2.6
2017-Nov-12 16:00N 49°26' W 123°28'714.0
2017-Nov-12 15:30N 49°25' W 123°17'3 4.9
2017-Nov-12 14:58N 49°23' W 123°16'613.7
2017-Nov-12 14:30N 49°25' W 123°25'2 4.5
2017-Nov-12 14:00N 49°26' W 123°28'0 0.0
2017-Nov-12 12:59N 49°26' W 123°28'0 0.0
2017-Nov-12 11:47N 49°26' W 123°28'0 0.0
2017-Nov-12 11:23N 49°26' W 123°28'0 0.0
2017-Nov-12 10:59N 49°26' W 123°28'0 0.0
2017-Nov-12 10:23N 49°26' W 123°28'0 0.0
2017-Nov-12 09:59N 49°26' W 123°28'0 0.0
2017-Nov-12 09:26N 49°26' W 123°28'0 0.0
2017-Nov-12 08:53N 49°26' W 123°28'0 0.0
2017-Nov-12 08:05N 49°26' W 123°28'0 0.0
2017-Nov-12 06:53N 49°26' W 123°28'0 0.0
2017-Nov-12 06:29N 49°26' W 123°28'612.3
2017-Nov-12 05:59N 49°26' W 123°19'4 6.3
2017-Nov-12 05:26N 49°23' W 123°16'613.1
2017-Nov-12 05:00N 49°25' W 123°24'3 5.9
2017-Nov-12 04:30N 49°26' W 123°28'714.0
2017-Nov-12 04:00N 49°25' W 123°17'2 4.3
2017-Nov-12 03:26N 49°23' W 123°16'716.6
2017-Nov-12 03:01N 49°25' W 123°26'1 2.4
2017-Nov-12 02:30N 49°26' W 123°28'816.3
2017-Nov-12 02:01N 49°23' W 123°16'0 0.4
2017-Nov-12 01:30N 49°23' W 123°16'816.5
2017-Nov-12 01:01N 49°26' W 123°28'1 2.5
2017-Nov-12 00:30N 49°25' W 123°27'713.2
2017-Nov-11 23:57N 49°23' W 123°16'2 4.0
2017-Nov-11 23:30N 49°24' W 123°17'815.2
2017-Nov-11 23:00N 49°26' W 123°28'0 0.7
2017-Nov-11 22:30N 49°26' W 123°28'8 8.8
2017-Nov-11 21:34N 49°23' W 123°16'0 3.8
2017-Nov-11 21:28N 49°23' W 123°16'816.3
2017-Nov-11 20:59N 49°26' W 123°27'1 1.2
2017-Nov-11 20:30N 49°26' W 123°28'815.0
2017-Nov-11 20:00N 49°25' W 123°17'2 3.5
2017-Nov-11 19:25N 49°23' W 123°16'510.5
2017-Nov-11 18:59N 49°25' W 123°22'4 9.1
2017-Nov-11 18:30N 49°26' W 123°28'2 4.4
2017-Nov-11 18:00N 49°25' W 123°25'612.1
2017-Nov-11 17:29N 49°23' W 123°16'1 1.6
2017-Nov-11 16:58N 49°23' W 123°16'817.1
2017-Nov-11 16:30N 49°26' W 123°28'0 0.3
2017-Nov-11 15:59N 49°26' W 123°28'713.5
2017-Nov-11 15:29N 49°25' W 123°17'2 4.2
2017-Nov-11 14:56N 49°23' W 123°16'614.3
2017-Nov-11 14:30N 49°25' W 123°25'2 4.9
2017-Nov-11 14:00N 49°26' W 123°28'0 0.0
2017-Nov-11 13:15N 49°26' W 123°28'0 0.0
2017-Nov-11 12:57N 49°26' W 123°28'0 0.0
2017-Nov-11 11:45N 49°26' W 123°28'0 0.0
2017-Nov-11 11:21N 49°26' W 123°28'0 0.0
2017-Nov-11 10:51N 49°26' W 123°28'0 0.0
2017-Nov-11 10:15N 49°26' W 123°28'0 0.0
2017-Nov-11 09:33N 49°26' W 123°28'0 0.0
2017-Nov-11 09:27N 49°26' W 123°28'0 0.0
2017-Nov-11 08:57N 49°26' W 123°28'0 0.0
2017-Nov-11 08:15N 49°26' W 123°28'0 0.0
2017-Nov-11 07:51N 49°26' W 123°28'0 0.0
2017-Nov-11 07:27N 49°26' W 123°28'0 1.0
2017-Nov-11 07:00N 49°26' W 123°28'815.7
2017-Nov-11 06:30N 49°23' W 123°16'0 0.9
2017-Nov-11 05:58N 49°23' W 123°16'611.7
2017-Nov-11 05:30N 49°25' W 123°24'3 6.2
2017-Nov-11 05:00N 49°26' W 123°28'813.3
2017-Nov-11 04:26N 49°24' W 123°17'2 3.3
2017-Nov-11 03:52N 49°23' W 123°16'411.0
2017-Nov-11 03:30N 49°26' W 123°20'510.4
2017-Nov-11 03:00N 49°26' W 123°28'5 9.4
2017-Nov-11 02:28N 49°26' W 123°21'4 9.0
2017-Nov-11 02:00N 49°23' W 123°16'4 6.8
2017-Nov-11 01:25N 49°26' W 123°20'512.6
2017-Nov-11 01:00N 49°26' W 123°28'2 3.0
2017-Nov-11 00:30N 49°25' W 123°26'711.6
2017-Nov-10 23:53N 49°23' W 123°16'0 0.3
2017-Nov-10 23:29N 49°23' W 123°16'715.7
2017-Nov-10 23:00N 49°25' W 123°27'1 2.2
2017-Nov-10 22:30N 49°26' W 123°28'714.4
2017-Nov-10 22:00N 49°25' W 123°17'3 5.2
2017-Nov-10 21:30N 49°23' W 123°16'510.2
2017-Nov-10 21:00N 49°25' W 123°23'3 6.9
2017-Nov-10 20:30N 49°26' W 123°28'612.1
2017-Nov-10 19:59N 49°26' W 123°19'3 3.7
2017-Nov-10 19:13N 49°23' W 123°16'416.8
2017-Nov-10 19:00N 49°25' W 123°21'5 9.6
2017-Nov-10 18:30N 49°26' W 123°28'3 6.6
2017-Nov-10 18:00N 49°25' W 123°23'5 8.4
2017-Nov-10 17:22N 49°23' W 123°16'1 3.0
2017-Nov-10 16:59N 49°24' W 123°16'816.4
2017-Nov-10 16:29N 49°26' W 123°28'0 0.2
2017-Nov-10 16:00N 49°26' W 123°28'815.6
2017-Nov-10 15:28N 49°23' W 123°16'1 1.2
2017-Nov-10 14:56N 49°23' W 123°16'615.0
2017-Nov-10 14:31N 49°25' W 123°25'2 4.0
2017-Nov-10 13:56N 49°26' W 123°28'0 0.0
2017-Nov-10 09:56N 49°26' W 123°28'0 0.0
2017-Nov-10 07:56N 49°26' W 123°28'0 0.0
2017-Nov-10 07:29N 49°26' W 123°28'0 0.0
2017-Nov-10 06:56N 49°26' W 123°28'612.9
2017-Nov-10 06:28N 49°26' W 123°19'3 6.3
2017-Nov-10 05:55N 49°23' W 123°16'615.5
2017-Nov-10 05:30N 49°25' W 123°25'2 4.1
2017-Nov-10 04:58N 49°26' W 123°28'716.0
2017-Nov-10 04:31N 49°24' W 123°17'2 3.1
2017-Nov-10 03:57N 49°23' W 123°16'715.7
2017-Nov-10 03:30N 49°25' W 123°26'1 2.9
2017-Nov-10 03:00N 49°26' W 123°28'815.3
2017-Nov-10 02:29N 49°24' W 123°17'1 1.4
2017-Nov-10 01:51N 49°23' W 123°16'515.6
2017-Nov-10 01:30N 49°25' W 123°24'3 6.0
2017-Nov-10 00:59N 49°26' W 123°28'3 6.0
2017-Nov-10 00:31N 49°25' W 123°24'6 7.7
2017-Nov-09 23:46N 49°23' W 123°16'1 3.5
2017-Nov-09 23:30N 49°24' W 123°16'  

Dump ship's entire track history